sensor_id;sensor_type;location;lat;lon;timestamp;P1;durP1;ratioP1;P2;durP2;ratioP2
17235;SDS011;8734;59.272;17.780;2023-04-01T00:01:09;4.37;;;1.60;;
17235;SDS011;8734;59.272;17.780;2023-04-01T00:03:40;4.23;;;2.20;;
17235;SDS011;8734;59.272;17.780;2023-04-01T00:06:09;3.17;;;1.63;;
17235;SDS011;8734;59.272;17.780;2023-04-01T00:08:41;11.43;;;2.67;;
17235;SDS011;8734;59.272;17.780;2023-04-01T00:11:10;7.93;;;1.83;;
17235;SDS011;8734;59.272;17.780;2023-04-01T00:13:39;7.57;;;2.00;;
17235;SDS011;8734;59.272;17.780;2023-04-01T00:16:08;4.07;;;1.77;;
17235;SDS011;8734;59.272;17.780;2023-04-01T00:18:48;7.07;;;1.80;;
17235;SDS011;8734;59.272;17.780;2023-04-01T00:21:17;8.80;;;1.73;;
17235;SDS011;8734;59.272;17.780;2023-04-01T00:23:48;7.30;;;2.10;;
17235;SDS011;8734;59.272;17.780;2023-04-01T00:26:17;6.93;;;2.40;;
17235;SDS011;8734;59.272;17.780;2023-04-01T00:28:47;4.73;;;2.10;;
17235;SDS011;8734;59.272;17.780;2023-04-01T00:31:17;5.33;;;2.33;;
17235;SDS011;8734;59.272;17.780;2023-04-01T00:33:46;3.50;;;1.87;;
17235;SDS011;8734;59.272;17.780;2023-04-01T00:36:15;5.60;;;2.33;;
17235;SDS011;8734;59.272;17.780;2023-04-01T00:38:45;4.60;;;2.50;;
17235;SDS011;8734;59.272;17.780;2023-04-01T00:41:15;4.57;;;2.20;;
17235;SDS011;8734;59.272;17.780;2023-04-01T00:43:45;3.07;;;1.93;;
17235;SDS011;8734;59.272;17.780;2023-04-01T00:46:15;5.07;;;2.07;;
17235;SDS011;8734;59.272;17.780;2023-04-01T00:48:44;3.80;;;1.40;;
17235;SDS011;8734;59.272;17.780;2023-04-01T00:51:16;3.30;;;2.20;;
17235;SDS011;8734;59.272;17.780;2023-04-01T00:53:49;4.43;;;2.00;;
17235;SDS011;8734;59.272;17.780;2023-04-01T00:56:21;6.03;;;1.93;;
17235;SDS011;8734;59.272;17.780;2023-04-01T00:58:54;3.70;;;1.80;;
17235;SDS011;8734;59.272;17.780;2023-04-01T01:01:28;7.60;;;1.80;;
17235;SDS011;8734;59.272;17.780;2023-04-01T01:03:57;4.27;;;2.07;;
17235;SDS011;8734;59.272;17.780;2023-04-01T01:06:29;3.63;;;2.00;;
17235;SDS011;8734;59.272;17.780;2023-04-01T01:09:20;14.17;;;2.07;;
17235;SDS011;8734;59.272;17.780;2023-04-01T01:11:57;33.13;;;3.10;;
17235;SDS011;8734;59.272;17.780;2023-04-01T01:14:35;12.23;;;2.67;;
17235;SDS011;8734;59.272;17.780;2023-04-01T01:17:11;8.23;;;1.83;;
17235;SDS011;8734;59.272;17.780;2023-04-01T01:19:48;11.77;;;1.50;;
17235;SDS011;8734;59.272;17.780;2023-04-01T01:25:53;5.17;;;2.00;;
17235;SDS011;8734;59.272;17.780;2023-04-01T01:28:40;7.63;;;1.73;;
17235;SDS011;8734;59.272;17.780;2023-04-01T01:31:18;3.77;;;1.87;;
17235;SDS011;8734;59.272;17.780;2023-04-01T01:33:54;10.33;;;1.90;;
17235;SDS011;8734;59.272;17.780;2023-04-01T01:36:35;7.00;;;1.70;;
17235;SDS011;8734;59.272;17.780;2023-04-01T01:39:06;2.57;;;1.13;;
17235;SDS011;8734;59.272;17.780;2023-04-01T01:41:36;5.20;;;1.83;;
17235;SDS011;8734;59.272;17.780;2023-04-01T01:44:09;10.10;;;1.43;;
17235;SDS011;8734;59.272;17.780;2023-04-01T01:46:40;5.27;;;1.70;;
17235;SDS011;8734;59.272;17.780;2023-04-01T01:49:10;3.30;;;1.73;;
17235;SDS011;8734;59.272;17.780;2023-04-01T01:51:42;5.20;;;2.10;;
17235;SDS011;8734;59.272;17.780;2023-04-01T01:54:11;3.23;;;1.80;;
17235;SDS011;8734;59.272;17.780;2023-04-01T01:56:40;3.80;;;1.70;;
17235;SDS011;8734;59.272;17.780;2023-04-01T01:59:10;5.60;;;1.90;;
17235;SDS011;8734;59.272;17.780;2023-04-01T02:01:41;12.03;;;2.23;;
17235;SDS011;8734;59.272;17.780;2023-04-01T02:04:13;3.80;;;1.83;;
17235;SDS011;8734;59.272;17.780;2023-04-01T02:06:44;3.07;;;1.83;;
17235;SDS011;8734;59.272;17.780;2023-04-01T02:09:19;4.67;;;1.67;;
17235;SDS011;8734;59.272;17.780;2023-04-01T02:11:48;3.20;;;1.27;;
17235;SDS011;8734;59.272;17.780;2023-04-01T02:14:19;3.70;;;1.57;;
17235;SDS011;8734;59.272;17.780;2023-04-01T02:16:51;2.53;;;1.63;;
17235;SDS011;8734;59.272;17.780;2023-04-01T02:19:26;6.77;;;2.10;;
17235;SDS011;8734;59.272;17.780;2023-04-01T02:21:59;4.80;;;1.83;;
17235;SDS011;8734;59.272;17.780;2023-04-01T02:24:30;2.97;;;1.60;;
17235;SDS011;8734;59.272;17.780;2023-04-01T02:27:01;3.40;;;1.77;;
17235;SDS011;8734;59.272;17.780;2023-04-01T02:29:29;4.37;;;1.73;;
17235;SDS011;8734;59.272;17.780;2023-04-01T02:31:58;3.80;;;1.40;;
17235;SDS011;8734;59.272;17.780;2023-04-01T02:34:27;4.00;;;1.97;;
17235;SDS011;8734;59.272;17.780;2023-04-01T02:36:56;3.27;;;1.83;;
17235;SDS011;8734;59.272;17.780;2023-04-01T02:39:26;3.57;;;1.80;;
17235;SDS011;8734;59.272;17.780;2023-04-01T02:41:55;3.40;;;1.70;;
17235;SDS011;8734;59.272;17.780;2023-04-01T02:44:23;3.53;;;1.73;;
17235;SDS011;8734;59.272;17.780;2023-04-01T02:46:51;2.83;;;1.73;;
17235;SDS011;8734;59.272;17.780;2023-04-01T02:49:20;6.03;;;1.80;;
17235;SDS011;8734;59.272;17.780;2023-04-01T02:51:48;9.03;;;1.97;;
17235;SDS011;8734;59.272;17.780;2023-04-01T02:54:19;3.83;;;1.80;;
17235;SDS011;8734;59.272;17.780;2023-04-01T02:56:48;2.43;;;1.27;;
17235;SDS011;8734;59.272;17.780;2023-04-01T02:59:17;3.40;;;1.67;;
17235;SDS011;8734;59.272;17.780;2023-04-01T03:01:45;4.50;;;1.60;;
17235;SDS011;8734;59.272;17.780;2023-04-01T03:04:14;2.97;;;1.43;;
17235;SDS011;8734;59.272;17.780;2023-04-01T03:06:42;3.90;;;1.50;;
17235;SDS011;8734;59.272;17.780;2023-04-01T03:09:10;5.87;;;2.00;;
17235;SDS011;8734;59.272;17.780;2023-04-01T03:11:41;4.10;;;1.47;;
17235;SDS011;8734;59.272;17.780;2023-04-01T03:14:09;9.83;;;1.57;;
17235;SDS011;8734;59.272;17.780;2023-04-01T03:16:37;4.40;;;2.10;;
17235;SDS011;8734;59.272;17.780;2023-04-01T03:19:06;3.10;;;1.60;;
17235;SDS011;8734;59.272;17.780;2023-04-01T03:21:35;5.57;;;1.70;;
17235;SDS011;8734;59.272;17.780;2023-04-01T03:24:03;10.10;;;2.20;;
17235;SDS011;8734;59.272;17.780;2023-04-01T03:26:32;1.97;;;1.17;;
17235;SDS011;8734;59.272;17.780;2023-04-01T03:29:02;5.30;;;1.90;;
17235;SDS011;8734;59.272;17.780;2023-04-01T03:31:30;3.93;;;1.80;;
17235;SDS011;8734;59.272;17.780;2023-04-01T03:34:00;4.60;;;2.03;;
17235;SDS011;8734;59.272;17.780;2023-04-01T03:36:28;2.77;;;1.40;;
17235;SDS011;8734;59.272;17.780;2023-04-01T03:38:57;5.03;;;1.70;;
17235;SDS011;8734;59.272;17.780;2023-04-01T03:41:25;4.63;;;1.80;;
17235;SDS011;8734;59.272;17.780;2023-04-01T03:43:54;4.13;;;1.87;;
17235;SDS011;8734;59.272;17.780;2023-04-01T03:46:23;4.10;;;1.50;;
17235;SDS011;8734;59.272;17.780;2023-04-01T03:48:52;3.53;;;1.57;;
17235;SDS011;8734;59.272;17.780;2023-04-01T03:51:20;3.97;;;1.50;;
17235;SDS011;8734;59.272;17.780;2023-04-01T03:53:48;2.63;;;1.70;;
17235;SDS011;8734;59.272;17.780;2023-04-01T03:56:17;3.03;;;1.67;;
17235;SDS011;8734;59.272;17.780;2023-04-01T03:58:45;4.50;;;1.60;;
17235;SDS011;8734;59.272;17.780;2023-04-01T04:01:14;5.93;;;1.63;;
17235;SDS011;8734;59.272;17.780;2023-04-01T04:03:47;1.73;;;1.10;;
17235;SDS011;8734;59.272;17.780;2023-04-01T04:06:17;5.10;;;1.63;;
17235;SDS011;8734;59.272;17.780;2023-04-01T04:08:46;2.23;;;1.73;;
17235;SDS011;8734;59.272;17.780;2023-04-01T04:11:15;5.73;;;2.07;;
17235;SDS011;8734;59.272;17.780;2023-04-01T04:13:43;3.80;;;1.73;;
17235;SDS011;8734;59.272;17.780;2023-04-01T04:16:12;3.00;;;1.50;;
17235;SDS011;8734;59.272;17.780;2023-04-01T04:18:40;4.70;;;1.40;;
17235;SDS011;8734;59.272;17.780;2023-04-01T04:21:12;2.97;;;1.50;;
17235;SDS011;8734;59.272;17.780;2023-04-01T04:23:42;3.57;;;1.60;;
17235;SDS011;8734;59.272;17.780;2023-04-01T04:26:11;5.87;;;2.00;;
17235;SDS011;8734;59.272;17.780;2023-04-01T04:28:41;5.47;;;1.53;;
17235;SDS011;8734;59.272;17.780;2023-04-01T04:31:10;7.70;;;2.00;;
17235;SDS011;8734;59.272;17.780;2023-04-01T04:33:38;3.30;;;1.70;;
17235;SDS011;8734;59.272;17.780;2023-04-01T04:36:06;4.90;;;1.67;;
17235;SDS011;8734;59.272;17.780;2023-04-01T04:38:37;5.27;;;1.70;;
17235;SDS011;8734;59.272;17.780;2023-04-01T04:41:08;15.53;;;1.67;;
17235;SDS011;8734;59.272;17.780;2023-04-01T04:43:38;3.63;;;2.00;;
17235;SDS011;8734;59.272;17.780;2023-04-01T04:46:07;2.93;;;1.50;;
17235;SDS011;8734;59.272;17.780;2023-04-01T04:48:36;4.00;;;1.70;;
17235;SDS011;8734;59.272;17.780;2023-04-01T04:51:04;6.63;;;1.87;;
17235;SDS011;8734;59.272;17.780;2023-04-01T04:53:33;2.30;;;1.33;;
17235;SDS011;8734;59.272;17.780;2023-04-01T04:56:02;3.70;;;1.90;;
17235;SDS011;8734;59.272;17.780;2023-04-01T04:58:31;3.63;;;1.80;;
17235;SDS011;8734;59.272;17.780;2023-04-01T05:01:04;2.80;;;1.60;;
17235;SDS011;8734;59.272;17.780;2023-04-01T05:03:34;6.67;;;1.60;;
17235;SDS011;8734;59.272;17.780;2023-04-01T05:06:02;6.73;;;1.90;;
17235;SDS011;8734;59.272;17.780;2023-04-01T05:08:31;5.00;;;1.93;;
17235;SDS011;8734;59.272;17.780;2023-04-01T05:11:00;5.50;;;2.03;;
17235;SDS011;8734;59.272;17.780;2023-04-01T05:13:30;3.43;;;2.17;;
17235;SDS011;8734;59.272;17.780;2023-04-01T05:15:58;5.87;;;1.43;;
17235;SDS011;8734;59.272;17.780;2023-04-01T05:18:26;4.37;;;1.70;;
17235;SDS011;8734;59.272;17.780;2023-04-01T05:20:55;3.40;;;1.67;;
17235;SDS011;8734;59.272;17.780;2023-04-01T05:23:24;5.47;;;2.13;;
17235;SDS011;8734;59.272;17.780;2023-04-01T05:25:52;5.87;;;2.20;;
17235;SDS011;8734;59.272;17.780;2023-04-01T05:28:20;3.77;;;1.70;;
17235;SDS011;8734;59.272;17.780;2023-04-01T05:30:50;4.30;;;2.07;;
17235;SDS011;8734;59.272;17.780;2023-04-01T05:33:19;4.03;;;2.20;;
17235;SDS011;8734;59.272;17.780;2023-04-01T05:35:47;6.73;;;1.97;;
17235;SDS011;8734;59.272;17.780;2023-04-01T05:38:15;6.77;;;2.00;;
17235;SDS011;8734;59.272;17.780;2023-04-01T05:40:44;5.03;;;2.33;;
17235;SDS011;8734;59.272;17.780;2023-04-01T05:43:12;7.93;;;2.67;;
17235;SDS011;8734;59.272;17.780;2023-04-01T05:45:41;6.40;;;2.67;;
17235;SDS011;8734;59.272;17.780;2023-04-01T05:48:11;3.20;;;1.87;;
17235;SDS011;8734;59.272;17.780;2023-04-01T05:50:39;3.30;;;2.47;;
17235;SDS011;8734;59.272;17.780;2023-04-01T05:53:10;4.93;;;2.17;;
17235;SDS011;8734;59.272;17.780;2023-04-01T05:55:38;10.17;;;3.07;;
17235;SDS011;8734;59.272;17.780;2023-04-01T05:58:07;12.33;;;3.00;;
17235;SDS011;8734;59.272;17.780;2023-04-01T06:00:35;9.40;;;2.70;;
17235;SDS011;8734;59.272;17.780;2023-04-01T06:03:03;5.73;;;2.47;;
17235;SDS011;8734;59.272;17.780;2023-04-01T06:05:37;8.40;;;2.97;;
17235;SDS011;8734;59.272;17.780;2023-04-01T06:08:10;11.30;;;2.30;;
17235;SDS011;8734;59.272;17.780;2023-04-01T06:10:43;12.00;;;2.93;;
17235;SDS011;8734;59.272;17.780;2023-04-01T06:13:23;6.93;;;2.70;;
17235;SDS011;8734;59.272;17.780;2023-04-01T06:15:59;8.83;;;2.73;;
17235;SDS011;8734;59.272;17.780;2023-04-01T06:21:59;4.13;;;2.13;;
17235;SDS011;8734;59.272;17.780;2023-04-01T06:24:50;4.17;;;1.87;;
17235;SDS011;8734;59.272;17.780;2023-04-01T06:27:34;5.37;;;2.63;;
17235;SDS011;8734;59.272;17.780;2023-04-01T06:30:22;10.77;;;2.30;;
17235;SDS011;8734;59.272;17.780;2023-04-01T06:33:13;4.20;;;2.00;;
17235;SDS011;8734;59.272;17.780;2023-04-01T06:36:14;2.87;;;1.80;;
17235;SDS011;8734;59.272;17.780;2023-04-01T06:41:57;3.03;;;2.17;;
17235;SDS011;8734;59.272;17.780;2023-04-01T06:44:38;7.03;;;2.30;;
17235;SDS011;8734;59.272;17.780;2023-04-01T06:47:21;2.67;;;1.73;;
17235;SDS011;8734;59.272;17.780;2023-04-01T06:49:58;4.60;;;1.57;;
17235;SDS011;8734;59.272;17.780;2023-04-01T06:52:35;6.03;;;2.00;;
17235;SDS011;8734;59.272;17.780;2023-04-01T06:55:16;6.97;;;1.63;;
17235;SDS011;8734;59.272;17.780;2023-04-01T06:57:54;8.70;;;1.60;;
17235;SDS011;8734;59.272;17.780;2023-04-01T07:00:27;2.80;;;1.73;;
17235;SDS011;8734;59.272;17.780;2023-04-01T07:03:00;6.20;;;2.13;;
17235;SDS011;8734;59.272;17.780;2023-04-01T07:05:33;2.57;;;1.80;;
17235;SDS011;8734;59.272;17.780;2023-04-01T07:08:04;3.97;;;1.40;;
17235;SDS011;8734;59.272;17.780;2023-04-01T07:10:41;3.17;;;1.70;;
17235;SDS011;8734;59.272;17.780;2023-04-01T07:13:13;5.20;;;1.50;;
17235;SDS011;8734;59.272;17.780;2023-04-01T07:15:49;6.53;;;1.83;;
17235;SDS011;8734;59.272;17.780;2023-04-01T07:18:25;5.23;;;1.40;;
17235;SDS011;8734;59.272;17.780;2023-04-01T07:20:59;3.30;;;1.50;;
17235;SDS011;8734;59.272;17.780;2023-04-01T07:23:31;3.27;;;1.70;;
17235;SDS011;8734;59.272;17.780;2023-04-01T07:26:11;5.13;;;2.00;;
17235;SDS011;8734;59.272;17.780;2023-04-01T07:28:45;2.60;;;1.30;;
17235;SDS011;8734;59.272;17.780;2023-04-01T07:31:19;3.73;;;1.40;;
17235;SDS011;8734;59.272;17.780;2023-04-01T07:33:59;4.07;;;1.27;;
17235;SDS011;8734;59.272;17.780;2023-04-01T07:36:35;2.97;;;1.27;;
17235;SDS011;8734;59.272;17.780;2023-04-01T07:39:09;2.23;;;1.17;;
17235;SDS011;8734;59.272;17.780;2023-04-01T07:41:50;7.20;;;1.20;;
17235;SDS011;8734;59.272;17.780;2023-04-01T07:44:24;6.27;;;1.10;;
17235;SDS011;8734;59.272;17.780;2023-04-01T07:47:00;2.17;;;1.30;;
17235;SDS011;8734;59.272;17.780;2023-04-01T07:49:41;8.83;;;1.10;;
17235;SDS011;8734;59.272;17.780;2023-04-01T07:52:19;2.27;;;1.03;;
17235;SDS011;8734;59.272;17.780;2023-04-01T07:54:52;1.70;;;1.10;;
17235;SDS011;8734;59.272;17.780;2023-04-01T07:57:30;2.07;;;1.17;;
17235;SDS011;8734;59.272;17.780;2023-04-01T08:00:05;2.77;;;1.20;;
17235;SDS011;8734;59.272;17.780;2023-04-01T08:02:44;4.90;;;1.07;;
17235;SDS011;8734;59.272;17.780;2023-04-01T08:05:28;2.03;;;1.13;;
17235;SDS011;8734;59.272;17.780;2023-04-01T08:08:03;1.63;;;0.90;;
17235;SDS011;8734;59.272;17.780;2023-04-01T08:10:36;2.80;;;1.07;;
17235;SDS011;8734;59.272;17.780;2023-04-01T08:13:15;2.33;;;1.10;;
17235;SDS011;8734;59.272;17.780;2023-04-01T08:15:52;5.00;;;0.80;;
17235;SDS011;8734;59.272;17.780;2023-04-01T08:18:28;8.93;;;1.30;;
17235;SDS011;8734;59.272;17.780;2023-04-01T08:21:05;3.47;;;1.20;;
17235;SDS011;8734;59.272;17.780;2023-04-01T08:23:38;5.13;;;1.20;;
17235;SDS011;8734;59.272;17.780;2023-04-01T08:26:12;4.23;;;1.20;;
17235;SDS011;8734;59.272;17.780;2023-04-01T08:28:52;4.10;;;0.97;;
17235;SDS011;8734;59.272;17.780;2023-04-01T08:31:25;2.40;;;0.80;;
17235;SDS011;8734;59.272;17.780;2023-04-01T08:33:59;7.17;;;1.07;;
17235;SDS011;8734;59.272;17.780;2023-04-01T08:36:32;4.93;;;1.30;;
17235;SDS011;8734;59.272;17.780;2023-04-01T08:39:04;1.83;;;1.00;;
17235;SDS011;8734;59.272;17.780;2023-04-01T08:47:38;3.47;;;1.00;;
17235;SDS011;8734;59.272;17.780;2023-04-01T08:50:34;3.70;;;1.10;;
17235;SDS011;8734;59.272;17.780;2023-04-01T08:53:20;2.03;;;1.07;;
17235;SDS011;8734;59.272;17.780;2023-04-01T08:55:56;5.57;;;1.10;;
17235;SDS011;8734;59.272;17.780;2023-04-01T08:58:44;2.37;;;0.80;;
17235;SDS011;8734;59.272;17.780;2023-04-01T09:01:35;7.67;;;1.13;;
17235;SDS011;8734;59.272;17.780;2023-04-01T09:04:25;2.70;;;1.27;;
17235;SDS011;8734;59.272;17.780;2023-04-01T09:07:22;2.93;;;1.00;;
17235;SDS011;8734;59.272;17.780;2023-04-01T09:10:07;6.70;;;1.17;;
17235;SDS011;8734;59.272;17.780;2023-04-01T09:16:22;4.90;;;0.90;;
17235;SDS011;8734;59.272;17.780;2023-04-01T09:22:02;6.67;;;1.10;;
17235;SDS011;8734;59.272;17.780;2023-04-01T09:27:54;4.63;;;1.03;;
17235;SDS011;8734;59.272;17.780;2023-04-01T09:30:33;4.60;;;1.00;;
17235;SDS011;8734;59.272;17.780;2023-04-01T09:33:27;3.43;;;0.83;;
17235;SDS011;8734;59.272;17.780;2023-04-01T09:36:26;1.43;;;0.90;;
17235;SDS011;8734;59.272;17.780;2023-04-01T09:39:12;1.80;;;0.90;;
17235;SDS011;8734;59.272;17.780;2023-04-01T09:41:57;5.77;;;1.10;;
17235;SDS011;8734;59.272;17.780;2023-04-01T09:44:42;9.83;;;0.97;;
17235;SDS011;8734;59.272;17.780;2023-04-01T09:47:20;3.90;;;0.90;;
17235;SDS011;8734;59.272;17.780;2023-04-01T09:50:14;7.93;;;0.90;;
17235;SDS011;8734;59.272;17.780;2023-04-01T09:53:04;13.13;;;1.13;;
17235;SDS011;8734;59.272;17.780;2023-04-01T09:55:50;11.13;;;0.80;;
17235;SDS011;8734;59.272;17.780;2023-04-01T10:05:12;5.37;;;1.30;;
17235;SDS011;8734;59.272;17.780;2023-04-01T10:11:16;11.53;;;0.97;;
17235;SDS011;8734;59.272;17.780;2023-04-01T10:14:23;3.10;;;1.20;;
17235;SDS011;8734;59.272;17.780;2023-04-01T10:20:31;3.40;;;1.03;;
17235;SDS011;8734;59.272;17.780;2023-04-01T10:26:24;5.07;;;0.80;;
17235;SDS011;8734;59.272;17.780;2023-04-01T10:32:39;5.27;;;1.07;;
17235;SDS011;8734;59.272;17.780;2023-04-01T10:35:51;3.23;;;1.10;;
17235;SDS011;8734;59.272;17.780;2023-04-01T10:38:57;5.67;;;1.00;;
17235;SDS011;8734;59.272;17.780;2023-04-01T10:41:58;6.60;;;1.00;;
17235;SDS011;8734;59.272;17.780;2023-04-01T10:48:21;10.77;;;0.90;;
17235;SDS011;8734;59.272;17.780;2023-04-01T10:51:09;8.07;;;0.90;;
17235;SDS011;8734;59.272;17.780;2023-04-01T10:53:49;5.20;;;0.80;;
17235;SDS011;8734;59.272;17.780;2023-04-01T10:56:40;1.50;;;0.70;;
17235;SDS011;8734;59.272;17.780;2023-04-01T10:59:27;4.93;;;0.70;;
17235;SDS011;8734;59.272;17.780;2023-04-01T11:12:05;9.23;;;1.20;;
17235;SDS011;8734;59.272;17.780;2023-04-01T11:15:04;2.27;;;0.70;;
17235;SDS011;8734;59.272;17.780;2023-04-01T11:27:05;3.50;;;0.70;;
17235;SDS011;8734;59.272;17.780;2023-04-01T11:30:04;0.97;;;0.60;;
17235;SDS011;8734;59.272;17.780;2023-04-01T11:32:54;5.90;;;0.90;;
17235;SDS011;8734;59.272;17.780;2023-04-01T11:35:34;4.53;;;0.60;;
17235;SDS011;8734;59.272;17.780;2023-04-01T11:38:31;4.30;;;0.80;;
17235;SDS011;8734;59.272;17.780;2023-04-01T11:41:14;2.27;;;0.77;;
17235;SDS011;8734;59.272;17.780;2023-04-01T11:43:57;3.07;;;0.90;;
17235;SDS011;8734;59.272;17.780;2023-04-01T11:46:54;39.30;;;2.10;;
17235;SDS011;8734;59.272;17.780;2023-04-01T11:49:42;1.30;;;0.57;;
17235;SDS011;8734;59.272;17.780;2023-04-01T11:52:17;7.80;;;0.50;;
17235;SDS011;8734;59.272;17.780;2023-04-01T11:54:57;2.70;;;0.57;;
17235;SDS011;8734;59.272;17.780;2023-04-01T11:57:43;0.53;;;0.50;;
17235;SDS011;8734;59.272;17.780;2023-04-01T12:00:38;2.90;;;0.40;;
17235;SDS011;8734;59.272;17.780;2023-04-01T12:03:41;10.70;;;1.07;;
17235;SDS011;8734;59.272;17.780;2023-04-01T12:06:22;2.70;;;0.50;;
17235;SDS011;8734;59.272;17.780;2023-04-01T12:08:59;0.50;;;0.50;;
17235;SDS011;8734;59.272;17.780;2023-04-01T12:11:38;1.40;;;0.50;;
17235;SDS011;8734;59.272;17.780;2023-04-01T12:14:14;1.47;;;0.67;;
17235;SDS011;8734;59.272;17.780;2023-04-01T12:16:51;1.40;;;0.70;;
17235;SDS011;8734;59.272;17.780;2023-04-01T12:19:28;3.07;;;0.70;;
17235;SDS011;8734;59.272;17.780;2023-04-01T12:22:12;6.77;;;0.70;;
17235;SDS011;8734;59.272;17.780;2023-04-01T12:25:13;1.87;;;0.63;;
17235;SDS011;8734;59.272;17.780;2023-04-01T12:27:58;1.60;;;0.70;;
17235;SDS011;8734;59.272;17.780;2023-04-01T12:30:42;1.53;;;0.60;;
17235;SDS011;8734;59.272;17.780;2023-04-01T12:33:26;1.37;;;0.60;;
17235;SDS011;8734;59.272;17.780;2023-04-01T12:36:18;3.03;;;0.70;;
17235;SDS011;8734;59.272;17.780;2023-04-01T12:39:03;1.40;;;0.43;;
17235;SDS011;8734;59.272;17.780;2023-04-01T12:41:47;1.70;;;0.60;;
17235;SDS011;8734;59.272;17.780;2023-04-01T12:44:24;1.70;;;0.63;;
17235;SDS011;8734;59.272;17.780;2023-04-01T12:47:09;0.53;;;0.50;;
17235;SDS011;8734;59.272;17.780;2023-04-01T12:52:47;1.53;;;0.50;;
17235;SDS011;8734;59.272;17.780;2023-04-01T12:55:35;1.03;;;0.60;;
17235;SDS011;8734;59.272;17.780;2023-04-01T13:10:25;5.80;;;0.67;;
17235;SDS011;8734;59.272;17.780;2023-04-01T13:16:02;1.37;;;0.60;;
17235;SDS011;8734;59.272;17.780;2023-04-01T13:18:39;2.23;;;0.50;;
17235;SDS011;8734;59.272;17.780;2023-04-01T13:21:21;1.27;;;0.53;;
17235;SDS011;8734;59.272;17.780;2023-04-01T13:24:03;0.97;;;0.57;;
17235;SDS011;8734;59.272;17.780;2023-04-01T13:26:41;2.00;;;0.60;;
17235;SDS011;8734;59.272;17.780;2023-04-01T13:29:19;0.67;;;0.47;;
17235;SDS011;8734;59.272;17.780;2023-04-01T13:32:05;3.47;;;0.70;;
17235;SDS011;8734;59.272;17.780;2023-04-01T13:34:46;7.90;;;0.60;;
17235;SDS011;8734;59.272;17.780;2023-04-01T13:37:25;0.67;;;0.50;;
17235;SDS011;8734;59.272;17.780;2023-04-01T13:40:11;0.43;;;0.40;;
17235;SDS011;8734;59.272;17.780;2023-04-01T13:43:01;2.33;;;1.00;;
17235;SDS011;8734;59.272;17.780;2023-04-01T13:45:34;0.50;;;0.47;;
17235;SDS011;8734;59.272;17.780;2023-04-01T13:48:25;0.97;;;0.70;;
17235;SDS011;8734;59.272;17.780;2023-04-01T13:54:25;4.93;;;0.50;;
17235;SDS011;8734;59.272;17.780;2023-04-01T13:57:26;1.43;;;0.60;;
17235;SDS011;8734;59.272;17.780;2023-04-01T14:05:55;2.13;;;0.70;;
17235;SDS011;8734;59.272;17.780;2023-04-01T14:08:42;2.53;;;0.50;;
17235;SDS011;8734;59.272;17.780;2023-04-01T14:11:25;2.03;;;0.77;;
17235;SDS011;8734;59.272;17.780;2023-04-01T14:14:05;4.27;;;0.60;;
17235;SDS011;8734;59.272;17.780;2023-04-01T14:16:51;0.87;;;0.40;;
17235;SDS011;8734;59.272;17.780;2023-04-01T14:19:46;0.57;;;0.53;;
17235;SDS011;8734;59.272;17.780;2023-04-01T14:22:34;2.00;;;0.60;;
17235;SDS011;8734;59.272;17.780;2023-04-01T14:25:31;1.93;;;0.60;;
17235;SDS011;8734;59.272;17.780;2023-04-01T14:28:22;3.80;;;0.67;;
17235;SDS011;8734;59.272;17.780;2023-04-01T14:31:03;1.80;;;0.60;;
17235;SDS011;8734;59.272;17.780;2023-04-01T14:33:46;0.80;;;0.60;;
17235;SDS011;8734;59.272;17.780;2023-04-01T14:36:29;0.50;;;0.50;;
17235;SDS011;8734;59.272;17.780;2023-04-01T14:39:22;4.73;;;1.20;;
17235;SDS011;8734;59.272;17.780;2023-04-01T14:42:04;5.50;;;0.57;;
17235;SDS011;8734;59.272;17.780;2023-04-01T14:44:54;0.53;;;0.50;;
17235;SDS011;8734;59.272;17.780;2023-04-01T14:47:41;1.17;;;0.57;;
17235;SDS011;8734;59.272;17.780;2023-04-01T14:50:14;0.80;;;0.60;;
17235;SDS011;8734;59.272;17.780;2023-04-01T14:52:47;1.30;;;0.90;;
17235;SDS011;8734;59.272;17.780;2023-04-01T14:55:28;3.40;;;0.70;;
17235;SDS011;8734;59.272;17.780;2023-04-01T14:58:10;1.57;;;0.50;;
17235;SDS011;8734;59.272;17.780;2023-04-01T15:00:42;5.63;;;0.80;;
17235;SDS011;8734;59.272;17.780;2023-04-01T15:03:36;2.23;;;0.60;;
17235;SDS011;8734;59.272;17.780;2023-04-01T15:06:27;1.43;;;0.70;;
17235;SDS011;8734;59.272;17.780;2023-04-01T15:09:13;0.77;;;0.60;;
17235;SDS011;8734;59.272;17.780;2023-04-01T15:11:49;0.50;;;0.50;;
17235;SDS011;8734;59.272;17.780;2023-04-01T15:17:43;3.63;;;0.90;;
17235;SDS011;8734;59.272;17.780;2023-04-01T15:20:25;4.17;;;0.50;;
17235;SDS011;8734;59.272;17.780;2023-04-01T15:23:16;4.60;;;0.60;;
17235;SDS011;8734;59.272;17.780;2023-04-01T15:26:05;1.23;;;0.60;;
17235;SDS011;8734;59.272;17.780;2023-04-01T15:28:42;3.50;;;0.60;;
17235;SDS011;8734;59.272;17.780;2023-04-01T15:31:18;2.20;;;0.50;;
17235;SDS011;8734;59.272;17.780;2023-04-01T15:34:07;1.17;;;0.60;;
17235;SDS011;8734;59.272;17.780;2023-04-01T15:36:50;5.80;;;0.50;;
17235;SDS011;8734;59.272;17.780;2023-04-01T15:39:24;6.33;;;0.87;;
17235;SDS011;8734;59.272;17.780;2023-04-01T15:42:15;7.67;;;1.27;;
17235;SDS011;8734;59.272;17.780;2023-04-01T15:47:46;2.27;;;0.50;;
17235;SDS011;8734;59.272;17.780;2023-04-01T15:50:29;3.77;;;0.70;;
17235;SDS011;8734;59.272;17.780;2023-04-01T15:53:29;4.43;;;0.73;;
17235;SDS011;8734;59.272;17.780;2023-04-01T15:56:14;2.00;;;0.73;;
17235;SDS011;8734;59.272;17.780;2023-04-01T15:58:51;0.73;;;0.53;;
17235;SDS011;8734;59.272;17.780;2023-04-01T16:01:40;1.60;;;0.70;;
17235;SDS011;8734;59.272;17.780;2023-04-01T16:04:17;2.33;;;0.80;;
17235;SDS011;8734;59.272;17.780;2023-04-01T16:07:02;2.10;;;0.80;;
17235;SDS011;8734;59.272;17.780;2023-04-01T16:09:49;4.07;;;0.80;;
17235;SDS011;8734;59.272;17.780;2023-04-01T16:12:34;5.20;;;0.77;;
17235;SDS011;8734;59.272;17.780;2023-04-01T16:15:17;1.03;;;0.50;;
17235;SDS011;8734;59.272;17.780;2023-04-01T16:20:52;1.80;;;0.60;;
17235;SDS011;8734;59.272;17.780;2023-04-01T16:23:25;2.73;;;0.87;;
17235;SDS011;8734;59.272;17.780;2023-04-01T16:26:05;1.70;;;0.83;;
17235;SDS011;8734;59.272;17.780;2023-04-01T16:28:39;6.37;;;0.90;;
17235;SDS011;8734;59.272;17.780;2023-04-01T16:31:13;7.13;;;0.90;;
17235;SDS011;8734;59.272;17.780;2023-04-01T16:33:51;2.27;;;0.57;;
17235;SDS011;8734;59.272;17.780;2023-04-01T16:36:25;6.87;;;0.60;;
17235;SDS011;8734;59.272;17.780;2023-04-01T16:39:06;2.60;;;0.50;;
17235;SDS011;8734;59.272;17.780;2023-04-01T16:41:48;2.30;;;0.60;;
17235;SDS011;8734;59.272;17.780;2023-04-01T16:44:21;3.30;;;0.73;;
17235;SDS011;8734;59.272;17.780;2023-04-01T16:46:51;1.03;;;0.73;;
17235;SDS011;8734;59.272;17.780;2023-04-01T16:49:32;6.87;;;0.60;;
17235;SDS011;8734;59.272;17.780;2023-04-01T16:52:15;3.80;;;0.80;;
17235;SDS011;8734;59.272;17.780;2023-04-01T16:54:47;2.20;;;1.00;;
17235;SDS011;8734;59.272;17.780;2023-04-01T16:57:23;7.17;;;0.97;;
17235;SDS011;8734;59.272;17.780;2023-04-01T16:59:57;7.47;;;1.00;;
17235;SDS011;8734;59.272;17.780;2023-04-01T17:02:33;5.97;;;0.90;;
17235;SDS011;8734;59.272;17.780;2023-04-01T17:05:07;2.87;;;1.00;;
17235;SDS011;8734;59.272;17.780;2023-04-01T17:07:42;4.27;;;0.90;;
17235;SDS011;8734;59.272;17.780;2023-04-01T17:13:17;6.13;;;0.90;;
17235;SDS011;8734;59.272;17.780;2023-04-01T17:16:00;8.30;;;1.13;;
17235;SDS011;8734;59.272;17.780;2023-04-01T17:18:37;2.97;;;0.77;;
17235;SDS011;8734;59.272;17.780;2023-04-01T17:21:14;9.57;;;0.90;;
17235;SDS011;8734;59.272;17.780;2023-04-01T17:23:47;4.07;;;0.93;;
17235;SDS011;8734;59.272;17.780;2023-04-01T17:26:24;4.10;;;1.00;;
17235;SDS011;8734;59.272;17.780;2023-04-01T17:29:03;4.73;;;0.73;;
17235;SDS011;8734;59.272;17.780;2023-04-01T17:31:46;2.23;;;0.80;;
17235;SDS011;8734;59.272;17.780;2023-04-01T17:37:28;5.73;;;1.07;;
17235;SDS011;8734;59.272;17.780;2023-04-01T17:40:15;7.37;;;1.07;;